createdAt,value
2019-01-22T00:01:25.605Z,101730.30
2019-01-22T00:03:53.453Z,101726.38
2019-01-22T00:06:24.701Z,101731.86
2019-01-22T00:08:52.879Z,101727.58
2019-01-22T00:11:21.032Z,101723.69
2019-01-22T00:13:50.228Z,101717.30
2019-01-22T00:16:21.042Z,101713.43
2019-01-22T00:18:49.402Z,101704.05
2019-01-22T00:21:18.588Z,101695.88
2019-01-22T00:23:46.436Z,101691.16
2019-01-22T00:26:14.557Z,101682.17
2019-01-22T00:28:42.491Z,101675.70
2019-01-22T00:31:10.633Z,101669.23
2019-01-22T00:33:38.831Z,101665.32
2019-01-22T00:36:07.009Z,101656.31
2019-01-22T00:38:36.300Z,101659.67
2019-01-22T00:41:06.068Z,101653.25
2019-01-22T00:43:33.979Z,101648.94
2019-01-22T00:46:02.265Z,101641.58
2019-01-22T00:48:30.477Z,101640.67
2019-01-22T00:51:01.401Z,101630.39
2019-01-22T00:53:29.314Z,101620.17
2019-01-22T00:55:57.303Z,101620.16
2019-01-22T00:58:29.302Z,101616.31
2019-01-22T01:00:57.534Z,101611.19
2019-01-22T01:03:25.753Z,101604.33
2019-01-22T01:06:00.417Z,101600.44
2019-01-22T01:08:29.630Z,101591.88
2019-01-22T01:10:57.834Z,101593.95
2019-01-22T01:13:26.147Z,101590.08
2019-01-22T01:15:54.253Z,101579.23
2019-01-22T01:18:22.622Z,101578.53
2019-01-22T01:20:50.694Z,101571.76
2019-01-22T01:23:19.910Z,101569.24
2019-01-22T01:25:48.932Z,101570.48
2019-01-22T01:28:17.466Z,101558.55
2019-01-22T01:30:47.481Z,101555.50
2019-01-22T01:33:18.118Z,101557.25
2019-01-22T01:35:46.148Z,101553.86
2019-01-22T01:38:15.940Z,101541.02
2019-01-22T01:40:44.004Z,101546.53
2019-01-22T01:43:11.978Z,101539.30
2019-01-22T01:45:39.938Z,101533.23
2019-01-22T01:48:08.241Z,101530.23
2019-01-22T01:50:36.336Z,101523.84
2019-01-22T01:53:04.334Z,101518.64
2019-01-22T01:55:32.337Z,101514.86
2019-01-22T01:58:01.913Z,101507.23
2019-01-22T02:00:29.958Z,101502.91
2019-01-22T02:02:57.847Z,101498.61
2019-01-22T02:05:26.014Z,101492.21
2019-01-22T02:07:55.953Z,101487.89
2019-01-22T02:10:25.942Z,101485.69
2019-01-22T02:13:00.437Z,101480.23
2019-01-22T02:16:28.286Z,101475.50
2019-01-22T02:19:17.677Z,101475.44
2019-01-22T02:22:37.302Z,101466.38
2019-01-22T02:26:39.508Z,101463.73
2019-01-22T02:30:24.188Z,101455.24
2019-01-22T02:33:45.974Z,101442.38
2019-01-22T02:37:36.072Z,101433.80
2019-01-22T02:40:23.534Z,101436.80
2019-01-22T02:44:00.548Z,101426.58
2019-01-22T02:47:07.216Z,101425.33
2019-01-22T02:54:03.208Z,101395.20
2019-01-22T02:56:55.996Z,101397.56
2019-01-22T03:00:09.066Z,101388.19
2019-01-22T03:03:23.311Z,101381.02
2019-01-22T03:06:55.935Z,101371.99
2019-01-22T03:10:27.800Z,101366.13
2019-01-22T03:13:27.876Z,101361.44
2019-01-22T03:16:46.269Z,101353.87
2019-01-22T03:19:30.551Z,101346.53
2019-01-22T03:22:25.684Z,101328.52
2019-01-22T03:25:16.060Z,101320.17
2019-01-22T03:28:23.172Z,101314.17
2019-01-22T03:32:06.656Z,101306.93
2019-01-22T03:35:50.869Z,101305.63
2019-01-22T03:38:58.832Z,101297.90
2019-01-22T03:42:43.160Z,101292.36
2019-01-22T03:45:56.829Z,101290.73
2019-01-22T03:49:12.391Z,101285.53
2019-01-22T03:52:26.671Z,101268.48
2019-01-22T03:55:35.435Z,101260.87
2019-01-22T03:58:10.368Z,101258.30
2019-01-22T04:01:16.781Z,101249.35
2019-01-22T04:03:44.944Z,101251.91
2019-01-22T04:06:42.524Z,101240.37
2019-01-22T04:09:34.857Z,101229.27
2019-01-22T04:12:03.187Z,101219.03
2019-01-22T04:14:31.188Z,101214.25
2019-01-22T04:16:59.413Z,101208.78
2019-01-22T04:19:27.493Z,101206.66
2019-01-22T04:21:55.840Z,101204.11
2019-01-22T04:25:27.705Z,101191.77
2019-01-22T04:28:40.910Z,101184.04
2019-01-22T04:31:28.610Z,101164.77
2019-01-22T04:35:03.793Z,101165.61
2019-01-22T04:38:35.457Z,101160.08
2019-01-22T04:41:49.498Z,101149.34
2019-01-22T04:45:21.572Z,101137.81
2019-01-22T04:48:57.414Z,101130.96
2019-01-22T04:52:42.607Z,101116.43
2019-01-22T04:55:50.573Z,101112.98
2019-01-22T04:59:03.388Z,101110.43
2019-01-22T05:02:21.947Z,101111.70
2019-01-22T05:05:19.956Z,101110.03
2019-01-22T05:08:28.477Z,101104.55
2019-01-22T05:11:48.379Z,101099.45
2019-01-22T05:15:31.261Z,101093.88
2019-01-22T05:18:47.380Z,101086.17
2019-01-22T05:22:03.424Z,101079.79
2019-01-22T05:25:11.596Z,101074.69
2019-01-22T05:28:48.249Z,101063.56
2019-01-22T05:32:15.593Z,101054.18
2019-01-22T05:35:18.487Z,101044.77
2019-01-22T05:38:32.263Z,101037.49
2019-01-22T05:41:52.300Z,101035.80
2019-01-22T05:45:01.158Z,101029.38
2019-01-22T05:48:21.379Z,101030.69
2019-01-22T05:51:41.755Z,101036.24
2019-01-22T05:54:48.687Z,101028.98
2019-01-22T05:57:59.845Z,101024.27
2019-01-22T06:01:07.812Z,101020.41
2019-01-22T06:04:56.245Z,101013.15
2019-01-22T06:08:26.646Z,101009.73
2019-01-22T06:11:57.649Z,101014.03
2019-01-22T06:15:19.307Z,101011.47
2019-01-22T06:19:12.864Z,101001.62
2019-01-22T06:22:49.816Z,101002.48
2019-01-22T06:26:08.948Z,100986.67
2019-01-22T06:33:10.664Z,100958.89
2019-01-22T06:36:39.744Z,100948.63
2019-01-22T06:40:06.003Z,100953.73
2019-01-22T06:43:09.519Z,100938.34
2019-01-22T06:46:46.583Z,100918.69
2019-01-22T06:49:41.841Z,100918.24
2019-01-22T06:53:05.101Z,100907.57
2019-01-22T06:56:58.623Z,100893.92
2019-01-22T07:00:36.177Z,100898.20
2019-01-22T07:03:49.270Z,100877.70
2019-01-22T07:07:01.719Z,100881.52
2019-01-22T07:14:17.331Z,100873.30
2019-01-22T07:17:39.165Z,100881.46
2019-01-22T07:20:54.152Z,100884.00
2019-01-22T07:23:58.546Z,100862.09
2019-01-22T07:27:25.410Z,100867.20
2019-01-22T07:31:05.917Z,100850.07
2019-01-22T07:34:42.970Z,100860.78
2019-01-22T07:38:13.949Z,100851.30
2019-01-22T07:45:21.398Z,100836.33
2019-01-22T07:48:17.066Z,100847.27
2019-01-22T07:51:34.352Z,100846.80
2019-01-22T07:54:58.827Z,100841.65
2019-01-22T07:58:26.296Z,100830.94
2019-01-22T08:01:51.679Z,100835.24
2019-01-22T08:05:51.969Z,100832.95
2019-01-22T08:09:03.850Z,100823.20
2019-01-22T08:12:28.014Z,100821.16
2019-01-22T08:15:49.898Z,100816.34
2019-01-22T08:19:00.590Z,100811.00
2019-01-22T08:22:26.891Z,100814.88
2019-01-22T08:29:31.300Z,100794.68
2019-01-22T08:33:14.353Z,100800.64
2019-01-22T08:36:24.523Z,100787.96
2019-01-22T08:39:47.344Z,100781.02
2019-01-22T08:43:13.882Z,100784.87
2019-01-22T08:46:38.505Z,100789.83
2019-01-22T08:50:00.179Z,100776.34
2019-01-22T08:53:05.372Z,100769.56
2019-01-22T08:56:43.718Z,100766.98
2019-01-22T08:59:51.707Z,100762.14
2019-01-22T09:02:58.081Z,100766.60
2019-01-22T09:06:12.657Z,100765.29
2019-01-22T09:09:28.325Z,100761.33
2019-01-22T09:12:24.837Z,100749.14
2019-01-22T09:15:50.756Z,100754.66
2019-01-22T09:19:18.200Z,100749.72
2019-01-22T09:22:40.189Z,100744.92
2019-01-22T09:25:51.025Z,100731.28
2019-01-22T09:29:16.225Z,100730.66
2019-01-22T09:32:42.114Z,100719.82
2019-01-22T09:36:15.879Z,100722.64
2019-01-22T09:38:43.850Z,100726.73
2019-01-22T09:41:11.719Z,100722.16
2019-01-22T09:43:41.040Z,100721.58
2019-01-22T09:46:08.842Z,100721.14
2019-01-22T09:48:36.920Z,100712.01
2019-01-22T09:51:04.798Z,100716.03
2019-01-22T09:53:32.585Z,100706.05
2019-01-22T09:56:01.127Z,100707.05
2019-01-22T09:58:29.144Z,100715.10
2019-01-22T10:00:57.164Z,100716.56
2019-01-22T10:03:25.117Z,100713.88
2019-01-22T10:05:52.924Z,100713.76
2019-01-22T10:08:21.275Z,100708.69
2019-01-22T10:10:49.467Z,100707.70
2019-01-22T10:13:17.316Z,100704.23
2019-01-22T10:15:45.136Z,100696.76
2019-01-22T10:18:13.526Z,100692.47
2019-01-22T10:20:41.559Z,100693.39
2019-01-22T10:23:09.523Z,100691.04
2019-01-22T10:25:37.511Z,100682.28
2019-01-22T10:28:05.411Z,100681.34
2019-01-22T10:30:33.463Z,100677.56
2019-01-22T10:33:03.167Z,100680.61
2019-01-22T10:35:31.006Z,100678.17
2019-01-22T10:37:59.005Z,100684.90
2019-01-22T10:40:26.959Z,100676.92
2019-01-22T10:42:54.875Z,100668.63
2019-01-22T10:45:22.679Z,100669.51
2019-01-22T10:47:50.478Z,100667.22
2019-01-22T10:50:20.267Z,100665.80
2019-01-22T10:52:48.062Z,100661.34
2019-01-22T10:55:15.983Z,100660.37
2019-01-22T10:57:44.023Z,100657.37
2019-01-22T11:00:16.846Z,100654.28
2019-01-22T11:02:44.927Z,100653.86
2019-01-22T11:05:19.134Z,100649.97
2019-01-22T11:07:47.060Z,100647.11
2019-01-22T11:10:14.887Z,100641.17
2019-01-22T11:12:42.841Z,100640.78
2019-01-22T11:15:10.746Z,100641.59
2019-01-22T11:17:38.946Z,100633.80
2019-01-22T11:20:11.753Z,100642.53
2019-01-22T11:22:39.542Z,100638.06
2019-01-22T11:25:09.860Z,100630.58
2019-01-22T11:27:37.711Z,100625.31
2019-01-22T11:30:10.271Z,100626.58
2019-01-22T11:32:38.192Z,100611.92
2019-01-22T11:35:07.545Z,100613.48
2019-01-22T11:37:35.629Z,100609.33
2019-01-22T11:40:07.707Z,100603.63
2019-01-22T11:42:35.507Z,100599.17
2019-01-22T11:45:04.741Z,100601.08
2019-01-22T11:47:32.600Z,100596.41
2019-01-22T11:50:00.428Z,100593.70
2019-01-22T11:52:28.479Z,100586.14
2019-01-22T11:54:56.466Z,100584.37
2019-01-22T11:57:24.457Z,100584.73
2019-01-22T11:59:52.259Z,100573.98
2019-01-22T12:02:20.232Z,100567.91
2019-01-22T12:04:48.167Z,100571.62
2019-01-22T12:07:15.942Z,100572.58
2019-01-22T12:09:43.893Z,100566.43
2019-01-22T12:12:11.989Z,100556.41
2019-01-22T12:14:39.933Z,100559.57
2019-01-22T12:17:07.753Z,100558.00
2019-01-22T12:19:35.784Z,100551.02
2019-01-22T12:22:03.953Z,100545.81
2019-01-22T12:24:32.208Z,100546.20
2019-01-22T12:27:00.091Z,100539.17
2019-01-22T12:29:28.213Z,100533.09
2019-01-22T12:31:56.023Z,100532.44
2019-01-22T12:34:24.048Z,100532.41
2019-01-22T12:36:51.866Z,100523.42
2019-01-22T12:39:19.883Z,100526.02
2019-01-22T12:41:49.188Z,100522.63
2019-01-22T12:44:17.377Z,100523.58
2019-01-22T12:46:45.224Z,100511.83
2019-01-22T12:49:13.198Z,100514.45
2019-01-22T12:51:41.014Z,100515.59
2019-01-22T12:54:09.092Z,100512.09
2019-01-22T12:56:37.022Z,100510.28
2019-01-22T12:59:04.956Z,100502.84
2019-01-22T13:01:32.812Z,100496.93
2019-01-22T13:04:00.595Z,100490.98
2019-01-22T13:06:28.475Z,100491.39
2019-01-22T13:08:56.295Z,100488.59
2019-01-22T13:11:24.645Z,100488.97
2019-01-22T13:13:52.974Z,100487.79
2019-01-22T13:16:20.909Z,100478.13
2019-01-22T13:18:48.704Z,100477.55
2019-01-22T13:21:16.557Z,100479.07
2019-01-22T13:23:44.455Z,100465.14
2019-01-22T13:26:12.380Z,100461.20
2019-01-22T13:28:41.674Z,100457.25
2019-01-22T13:31:09.605Z,100455.42
2019-01-22T13:33:37.416Z,100451.72
2019-01-22T13:36:05.633Z,100446.88
2019-01-22T13:38:33.830Z,100440.39
2019-01-22T13:41:01.801Z,100437.52
2019-01-22T13:43:29.583Z,100426.62
2019-01-22T13:45:57.600Z,100429.83
2019-01-22T13:48:25.886Z,100431.45
2019-01-22T13:50:54.342Z,100427.23
2019-01-22T13:53:22.114Z,100425.00
2019-01-22T13:55:50.260Z,100425.80
2019-01-22T13:58:18.069Z,100420.89
2019-01-22T14:00:45.893Z,100416.55
2019-01-22T14:03:14.234Z,100419.94
2019-01-22T14:05:42.114Z,100406.32
2019-01-22T14:08:10.444Z,100403.70
2019-01-22T14:10:38.408Z,100407.41
2019-01-22T14:13:06.320Z,100404.57
2019-01-22T14:15:37.904Z,100398.25
2019-01-22T14:18:07.044Z,100403.91
2019-01-22T14:20:34.901Z,100402.64
2019-01-22T14:23:03.311Z,100395.19
2019-01-22T14:25:31.141Z,100392.30
2019-01-22T14:27:59.010Z,100393.67
2019-01-22T14:30:33.746Z,100389.39
2019-01-22T14:33:01.562Z,100387.60
2019-01-22T14:35:29.488Z,100386.56
2019-01-22T14:37:57.451Z,100383.53
2019-01-22T14:40:25.350Z,100385.65
2019-01-22T14:42:53.271Z,100383.10
2019-01-22T14:45:21.794Z,100381.89
2019-01-22T14:47:55.706Z,100377.09
2019-01-22T14:50:26.001Z,100380.49
2019-01-22T14:52:53.889Z,100379.00
2019-01-22T14:55:21.813Z,100377.00
2019-01-22T14:57:49.652Z,100376.66
2019-01-22T15:00:23.587Z,100373.81
2019-01-22T15:02:53.015Z,100363.78
2019-01-22T15:05:21.013Z,100363.31
2019-01-22T15:07:48.835Z,100363.82
2019-01-22T15:10:17.745Z,100363.95
2019-01-22T15:12:47.715Z,100364.75
2019-01-22T15:15:16.678Z,100357.65
2019-01-22T15:17:44.547Z,100357.88
2019-01-22T15:20:18.737Z,100359.10
2019-01-22T15:22:46.590Z,100346.78
2019-01-22T15:25:14.538Z,100353.97
2019-01-22T15:27:42.611Z,100350.48
2019-01-22T15:30:20.100Z,100345.63
2019-01-22T15:32:48.068Z,100351.23
2019-01-22T15:35:16.755Z,100352.98
2019-01-22T15:37:44.631Z,100337.41
2019-01-22T15:40:17.234Z,100345.00
2019-01-22T15:42:45.143Z,100339.30
2019-01-22T15:45:13.043Z,100341.02
2019-01-22T15:47:40.846Z,100334.61
2019-01-22T15:50:11.860Z,100333.23
2019-01-22T15:52:39.941Z,100327.23
2019-01-22T15:55:13.129Z,100333.04
2019-01-22T15:57:41.088Z,100324.28
2019-01-22T16:00:13.143Z,100324.14
2019-01-22T16:02:41.462Z,100325.85
2019-01-22T16:05:09.554Z,100326.41
2019-01-22T16:07:37.566Z,100327.49
2019-01-22T16:10:07.061Z,100328.02
2019-01-22T16:12:34.876Z,100319.00
2019-01-22T16:15:03.918Z,100318.77
2019-01-22T16:17:31.785Z,100313.88
2019-01-22T16:19:59.954Z,100312.63
2019-01-22T16:22:27.896Z,100322.55
2019-01-22T16:24:56.348Z,100315.99
2019-01-22T16:27:24.354Z,100322.44
2019-01-22T16:29:52.340Z,100318.52
2019-01-22T16:32:20.739Z,100313.41
2019-01-22T16:34:48.587Z,100307.75
2019-01-22T16:37:16.429Z,100313.27
2019-01-22T16:39:44.441Z,100311.23
2019-01-22T16:42:12.378Z,100307.52
2019-01-22T16:44:40.294Z,100309.00
2019-01-22T16:47:08.107Z,100307.23
2019-01-22T16:49:36.015Z,100307.47
2019-01-22T16:52:03.824Z,100312.72
2019-01-22T16:54:31.674Z,100312.53
2019-01-22T16:57:00.625Z,100315.41
2019-01-22T16:59:28.570Z,100313.22
2019-01-22T17:01:56.389Z,100314.34
2019-01-22T17:04:24.323Z,100306.41
2019-01-22T17:06:52.597Z,100310.27
2019-01-22T17:09:20.482Z,100300.45
2019-01-22T17:11:48.645Z,100311.52
2019-01-22T17:14:16.482Z,100305.81
2019-01-22T17:16:44.474Z,100302.77
2019-01-22T17:19:12.297Z,100303.66
2019-01-22T17:21:40.109Z,100292.31
2019-01-22T17:24:08.054Z,100295.17
2019-01-22T17:26:35.909Z,100294.89
2019-01-22T17:29:03.734Z,100298.53
2019-01-22T17:31:51.308Z,100286.69
2019-01-22T17:34:19.291Z,100292.34
2019-01-22T17:36:47.373Z,100290.79
2019-01-22T17:39:15.328Z,100284.48
2019-01-22T17:41:43.203Z,100292.16
2019-01-22T17:44:11.539Z,100290.70
2019-01-22T17:46:39.446Z,100288.95
2019-01-22T17:49:07.277Z,100285.17
2019-01-22T17:51:35.195Z,100282.88
2019-01-22T17:54:03.427Z,100274.26
2019-01-22T17:56:31.340Z,100278.31
2019-01-22T17:59:00.026Z,100281.20
2019-01-22T18:01:27.844Z,100280.23
2019-01-22T18:03:55.820Z,100279.55
2019-01-22T18:06:23.779Z,100277.03
2019-01-22T18:08:51.634Z,100273.09
2019-01-22T18:11:19.446Z,100269.98
2019-01-22T18:13:47.400Z,100268.00
2019-01-22T18:16:15.543Z,100269.22
2019-01-22T18:18:46.235Z,100270.64
2019-01-22T18:21:13.545Z,100271.72
2019-01-22T18:23:41.420Z,100263.28
2019-01-22T18:26:09.573Z,100262.78
2019-01-22T18:28:37.522Z,100266.58
2019-01-22T18:31:05.465Z,100260.94
2019-01-22T18:33:33.472Z,100250.67
2019-01-22T18:36:01.406Z,100260.30
2019-01-22T18:38:29.473Z,100263.47
2019-01-22T18:40:58.911Z,100252.91
2019-01-22T18:43:27.447Z,100251.28
2019-01-22T18:45:55.736Z,100264.94
2019-01-22T18:48:23.627Z,100249.98
2019-01-22T18:50:51.564Z,100244.47
2019-01-22T18:53:19.544Z,100250.95
2019-01-22T18:55:47.710Z,100242.11
2019-01-22T18:58:15.762Z,100242.98
2019-01-22T19:00:43.829Z,100241.55
2019-01-22T19:03:12.074Z,100243.02
2019-01-22T19:05:40.306Z,100239.01
2019-01-22T19:08:08.527Z,100236.17
2019-01-22T19:10:42.746Z,100240.21
2019-01-22T19:13:11.939Z,100238.70
2019-01-22T19:15:40.046Z,100233.85
2019-01-22T19:18:07.972Z,100232.86
2019-01-22T19:20:35.885Z,100231.28
2019-01-22T19:23:06.231Z,100226.28
2019-01-22T19:25:34.300Z,100227.22
2019-01-22T19:28:04.458Z,100228.05
2019-01-22T19:30:32.424Z,100217.66
2019-01-22T19:33:00.412Z,100218.91
2019-01-22T19:35:28.508Z,100216.83
2019-01-22T19:37:59.520Z,100208.93
2019-01-22T19:40:27.544Z,100213.37
2019-01-22T19:42:55.413Z,100207.80
2019-01-22T19:45:34.184Z,100207.44
2019-01-22T19:48:02.023Z,100210.28
2019-01-22T19:50:29.882Z,100208.00
2019-01-22T19:52:57.907Z,100207.23
2019-01-22T19:55:27.579Z,100199.48
2019-01-22T19:57:55.987Z,100206.41
2019-01-22T20:00:30.927Z,100201.78
2019-01-22T20:02:59.993Z,100200.56
2019-01-22T20:05:30.320Z,100188.12
2019-01-22T20:07:59.228Z,100197.06
2019-01-22T20:10:27.396Z,100193.84
2019-01-22T20:12:55.225Z,100204.62
2019-01-22T20:15:23.799Z,100197.89
2019-01-22T20:17:52.015Z,100194.19
2019-01-22T20:20:20.053Z,100191.85
2019-01-22T20:22:48.028Z,100191.46
2019-01-22T20:25:19.127Z,100187.41
2019-01-22T20:27:48.267Z,100182.08
2019-01-22T20:30:26.526Z,100178.70
2019-01-22T20:32:54.437Z,100171.58
2019-01-22T20:35:22.543Z,100176.12
2019-01-22T20:37:50.760Z,100172.49
2019-01-22T20:40:20.667Z,100171.56
2019-01-22T20:42:49.172Z,100173.16
2019-01-22T20:45:18.530Z,100171.44
2019-01-22T20:47:46.403Z,100167.20
2019-01-22T20:50:19.032Z,100164.62
2019-01-22T20:52:44.577Z,100166.53
2019-01-22T20:55:15.309Z,100169.30
2019-01-22T20:57:43.596Z,100162.98
2019-01-22T21:00:17.239Z,100159.15
2019-01-22T21:02:45.204Z,100160.52
2019-01-22T21:05:19.461Z,100159.36
2019-01-22T21:07:47.607Z,100167.25
2019-01-22T21:10:28.360Z,100173.77
2019-01-22T21:13:00.496Z,100168.18
2019-01-22T21:15:29.667Z,100159.69
2019-01-22T21:17:57.684Z,100162.87
2019-01-22T21:20:25.725Z,100144.20
2019-01-22T21:22:54.132Z,100151.10
2019-01-22T21:25:22.213Z,100147.77
2019-01-22T21:27:50.282Z,100145.44
2019-01-22T21:30:28.163Z,100153.70
2019-01-22T21:32:58.020Z,100154.81
2019-01-22T21:35:26.160Z,100152.78
2019-01-22T21:37:54.018Z,100159.27
2019-01-22T21:40:22.596Z,100159.19
2019-01-22T21:42:51.253Z,100158.45
2019-01-22T21:45:19.609Z,100155.37
2019-01-22T21:47:47.634Z,100159.59
2019-01-22T21:50:15.662Z,100150.80
2019-01-22T21:52:43.962Z,100141.61
2019-01-22T21:55:15.718Z,100139.35
2019-01-22T21:57:46.594Z,100135.31
2019-01-22T22:00:20.849Z,100127.02
2019-01-22T22:02:55.440Z,100125.41
2019-01-22T22:05:27.577Z,100127.22
2019-01-22T22:07:55.734Z,100119.69
2019-01-22T22:10:24.311Z,100124.05
2019-01-22T22:12:54.918Z,100120.70
2019-01-22T22:15:24.189Z,100114.47
2019-01-22T22:17:52.377Z,100114.33
2019-01-22T22:20:23.781Z,100105.28
2019-01-22T22:22:52.016Z,100113.91
2019-01-22T22:25:21.309Z,100121.08
2019-01-22T22:27:49.487Z,100116.14
2019-01-22T22:30:34.687Z,100115.41
2019-01-22T22:33:39.531Z,100115.62
2019-01-22T22:36:07.611Z,100110.66
2019-01-22T22:38:35.937Z,100105.80
2019-01-22T22:41:04.065Z,100114.59
2019-01-22T22:43:32.348Z,100112.88
2019-01-22T22:46:05.697Z,100110.97
2019-01-22T22:48:33.780Z,100107.41
2019-01-22T22:51:06.125Z,100110.00
2019-01-22T22:53:34.102Z,100112.31
2019-01-22T22:56:02.344Z,100101.73
2019-01-22T22:58:31.084Z,100108.28
2019-01-22T23:01:30.170Z,100117.00
2019-01-22T23:03:58.424Z,100113.28
2019-01-22T23:06:26.426Z,100112.79
2019-01-22T23:08:55.203Z,100108.74
2019-01-22T23:11:23.429Z,100107.25
2019-01-22T23:13:53.591Z,100108.23
2019-01-22T23:16:21.764Z,100105.95
2019-01-22T23:18:51.013Z,100098.64
2019-01-22T23:21:19.159Z,100094.91
2019-01-22T23:23:50.123Z,100099.40
2019-01-22T23:26:18.128Z,100093.09
2019-01-22T23:28:47.604Z,100086.41
2019-01-22T23:31:16.261Z,100074.18
2019-01-22T23:33:46.422Z,100078.86
2019-01-22T23:36:17.248Z,100083.73
2019-01-22T23:38:45.306Z,100063.44
2019-01-22T23:41:15.548Z,100067.52
2019-01-22T23:43:43.836Z,100065.45
2019-01-22T23:46:11.836Z,100056.85
2019-01-22T23:48:39.962Z,100060.64
2019-01-22T23:51:12.157Z,100055.07
2019-01-22T23:53:40.173Z,100063.50
2019-01-22T23:56:08.269Z,100060.77
2019-01-22T23:58:36.510Z,100059.02
